Time;durP1;ratioP1;P1;durP2;ratioP2;P2;SDS_P1;SDS_P2;PMS_P1;PMS_P2;Temp;Humidity;BMP_temperature;BMP_pressure;BME280_temperature;BME280_humidity;BME280_pressure;Samples;Min_cycle;Max_cycle;Signal;HPM_P1;HPM_P2
2021/08/09 00:00:27;;;;;;;4.95;2.47;;;;;;;;;;5074323;28;20036;-76
2021/08/09 00:02:52;;;;;;;1.67;1.13;;;;;;;;;;5075598;28;20035;-77
2021/08/09 00:05:18;;;;;;;5.25;1.75;;;;;;;;;;5074136;28;20127;-75
2021/08/09 00:07:43;;;;;;;4.78;1.73;;;;;;;;;;5057565;28;20118;-76
2021/08/09 00:10:10;;;;;;;4.05;1.50;;;;;;;;;;5074034;28;20387;-75
2021/08/09 00:12:35;;;;;;;7.53;1.88;;;;;;;;;;5057703;28;20040;-76
2021/08/09 00:15:01;;;;;;;2.83;1.58;;;;;;;;;;5074015;28;20481;-75
2021/08/09 00:17:27;;;;;;;2.67;1.50;;;;;;;;;;5057289;28;20032;-76
2021/08/09 00:19:52;;;;;;;7.75;2.03;;;;;;;;;;5075047;28;20073;-76
2021/08/09 00:22:18;;;;;;;6.63;1.50;;;;;;;;;;5075402;28;20542;-76
2021/08/09 00:24:43;;;;;;;6.07;1.73;;;;;;;;;;5056924;28;20036;-76
2021/08/09 00:27:09;;;;;;;2.90;1.40;;;;;;;;;;5074885;28;20074;-76
2021/08/09 00:29:34;;;;;;;3.88;1.55;;;;;;;;;;5073813;28;20021;-75
2021/08/09 00:32:00;;;;;;;2.92;1.25;;;;;;;;;;5056812;28;20134;-76
2021/08/09 00:34:26;;;;;;;6.80;1.67;;;;;;;;;;5057057;28;20028;-76
2021/08/09 00:36:51;;;;;;;3.33;1.55;;;;;;;;;;5056932;28;20033;-76
2021/08/09 00:39:17;;;;;;;3.05;1.45;;;;;;;;;;5056795;28;20032;-77
2021/08/09 00:41:43;;;;;;;4.25;1.55;;;;;;;;;;5073394;28;20043;-77
2021/08/09 00:44:09;;;;;;;3.70;1.90;;;;;;;;;;5056726;28;20037;-76
2021/08/09 00:46:35;;;;;;;5.75;1.63;;;;;;;;;;5056618;28;20043;-77
2021/08/09 00:49:00;;;;;;;3.10;1.60;;;;;;;;;;5056882;28;20055;-77
2021/08/09 00:51:27;;;;;;;3.58;1.75;;;;;;;;;;5073569;28;20429;-76
2021/08/09 00:53:57;;;;;;;5.07;1.38;;;;;;;;;;5057109;28;20036;-76
2021/08/09 00:56:23;;;;;;;4.07;1.83;;;;;;;;;;5072975;28;20040;-76
2021/08/09 00:58:49;;;;;;;3.25;1.63;;;;;;;;;;5073190;28;20040;-78
2021/08/09 01:01:15;;;;;;;4.63;1.80;;;;;;;;;;5073196;28;20516;-77
2021/08/09 01:03:46;;;;;;;2.03;1.40;;;;;;;;;;5073248;28;20028;-78
2021/08/09 01:06:13;;;;;;;8.02;1.70;;;;;;;;;;5073393;28;20685;-77
2021/08/09 01:09:01;;;;;;;2.35;1.20;;;;;;;;;;5072770;28;20131;-77
2021/08/09 01:12:26;;;;;;;6.57;1.38;;;;;;;;;;5056443;28;20031;-77
2021/08/09 01:15:16;;;;;;;5.00;1.60;;;;;;;;;;5035256;28;20029;-77
2021/08/09 01:17:46;;;;;;;2.58;1.13;;;;;;;;;;5089327;28;20028;-76
2021/08/09 01:20:30;;;;;;;2.33;1.40;;;;;;;;;;5072853;28;20489;-76
2021/08/09 01:23:17;;;;;;;4.10;1.70;;;;;;;;;;5072336;28;20374;-77
2021/08/09 01:26:02;;;;;;;2.28;1.42;;;;;;;;;;5056161;28;20181;-77
2021/08/09 01:28:32;;;;;;;8.90;2.05;;;;;;;;;;5056288;28;20504;-77
2021/08/09 01:30:59;;;;;;;4.47;1.70;;;;;;;;;;5072391;28;20122;-76
2021/08/09 01:33:29;;;;;;;2.85;1.70;;;;;;;;;;5072334;28;20080;-77
2021/08/09 01:35:57;;;;;;;4.43;1.73;;;;;;;;;;5055813;28;20036;-77
2021/08/09 01:38:26;;;;;;;2.33;1.40;;;;;;;;;;5072282;28;20028;-76
2021/08/09 01:40:56;;;;;;;8.82;1.50;;;;;;;;;;5073827;28;20035;-76
2021/08/09 01:43:24;;;;;;;3.00;1.60;;;;;;;;;;5055222;28;20037;-76
2021/08/09 01:45:53;;;;;;;3.33;1.90;;;;;;;;;;5072216;28;20041;-76
2021/08/09 01:48:19;;;;;;;3.28;1.80;;;;;;;;;;5055658;28;20032;-76
2021/08/09 01:50:45;;;;;;;3.42;1.52;;;;;;;;;;5073275;28;20402;-76
2021/08/09 01:53:12;;;;;;;2.75;1.50;;;;;;;;;;5061260;28;20427;-79
2021/08/09 01:55:39;;;;;;;3.70;1.50;;;;;;;;;;5061099;28;20397;-76
2021/08/09 01:58:06;;;;;;;4.18;1.63;;;;;;;;;;5055401;28;20538;-77
2021/08/09 02:00:32;;;;;;;1.92;1.40;;;;;;;;;;5072121;28;20029;-78
2021/08/09 02:02:58;;;;;;;4.30;1.30;;;;;;;;;;5055479;28;20025;-77
2021/08/09 02:05:25;;;;;;;3.92;1.92;;;;;;;;;;5055715;28;20494;-76
2021/08/09 02:07:57;;;;;;;4.85;1.75;;;;;;;;;;5056078;28;20032;-77
2021/08/09 02:10:26;;;;;;;3.50;1.70;;;;;;;;;;5073240;28;20033;-76
2021/08/09 02:13:11;;;;;;;7.43;2.00;;;;;;;;;;5055561;28;20383;-76
2021/08/09 02:15:54;;;;;;;4.07;1.73;;;;;;;;;;5071972;28;20050;-77
2021/08/09 02:18:50;;;;;;;3.10;1.45;;;;;;;;;;5055166;28;20075;-76
2021/08/09 02:21:25;;;;;;;4.10;1.48;;;;;;;;;;5055761;28;20032;-78
2021/08/09 02:23:59;;;;;;;4.45;1.65;;;;;;;;;;5055100;28;20085;-77
2021/08/09 02:26:33;;;;;;;2.65;1.58;;;;;;;;;;5071384;28;20025;-76
2021/08/09 02:29:10;;;;;;;8.07;2.03;;;;;;;;;;5055382;28;20033;-77
2021/08/09 02:31:37;;;;;;;4.75;1.77;;;;;;;;;;5071763;28;20079;-76
2021/08/09 02:34:04;;;;;;;7.55;2.13;;;;;;;;;;5071573;28;20123;-76
2021/08/09 02:36:31;;;;;;;3.17;1.65;;;;;;;;;;5071658;28;20067;-77
2021/08/09 02:38:59;;;;;;;5.25;1.80;;;;;;;;;;5055009;28;20436;-76
2021/08/09 02:41:25;;;;;;;5.50;1.63;;;;;;;;;;5071489;28;20036;-76
2021/08/09 02:43:50;;;;;;;4.53;2.40;;;;;;;;;;5055058;28;20170;-77
2021/08/09 02:46:16;;;;;;;3.38;1.70;;;;;;;;;;5054935;28;20492;-76
2021/08/09 02:48:42;;;;;;;4.20;2.00;;;;;;;;;;5071518;28;20032;-78
2021/08/09 02:51:10;;;;;;;8.65;2.05;;;;;;;;;;5054936;28;20044;-77
2021/08/09 02:53:38;;;;;;;8.85;1.90;;;;;;;;;;5071232;28;20033;-77
2021/08/09 02:56:05;;;;;;;5.18;1.70;;;;;;;;;;5072889;28;20463;-76
2021/08/09 02:58:33;;;;;;;2.42;1.52;;;;;;;;;;5075579;28;20039;-77
2021/08/09 03:00:59;;;;;;;5.85;1.80;;;;;;;;;;5075321;28;20028;-77
2021/08/09 03:03:27;;;;;;;4.38;1.60;;;;;;;;;;5075268;28;20036;-76
2021/08/09 03:05:59;;;;;;;3.05;1.73;;;;;;;;;;5075371;28;20374;-76
2021/08/09 03:08:27;;;;;;;8.52;1.85;;;;;;;;;;5058586;28;20032;-76
2021/08/09 03:10:52;;;;;;;3.35;1.50;;;;;;;;;;5075304;28;20139;-76
2021/08/09 03:13:22;;;;;;;8.27;2.17;;;;;;;;;;5058700;28;20119;-76
2021/08/09 03:15:49;;;;;;;3.17;1.70;;;;;;;;;;5058495;28;20083;-77
2021/08/09 03:18:15;;;;;;;3.42;1.90;;;;;;;;;;5058310;28;20131;-78
2021/08/09 03:20:41;;;;;;;7.93;2.00;;;;;;;;;;5058438;28;20513;-77
2021/08/09 03:23:07;;;;;;;7.43;1.85;;;;;;;;;;5059620;28;20032;-76
2021/08/09 03:25:33;;;;;;;5.30;1.80;;;;;;;;;;5095030;28;20118;-77
2021/08/09 03:27:58;;;;;;;2.25;1.40;;;;;;;;;;5078472;28;20084;-77
2021/08/09 03:30:26;;;;;;;5.05;1.90;;;;;;;;;;5096419;28;20024;-77
2021/08/09 03:32:54;;;;;;;3.53;1.83;;;;;;;;;;5077916;28;20401;-76
2021/08/09 03:35:20;;;;;;;4.50;1.73;;;;;;;;;;5078007;28;20055;-77
2021/08/09 03:37:45;;;;;;;4.90;2.13;;;;;;;;;;5095291;28;20078;-76
2021/08/09 03:40:11;;;;;;;2.65;1.42;;;;;;;;;;5077637;28;20066;-76
2021/08/09 03:42:37;;;;;;;3.47;1.25;;;;;;;;;;5094940;28;20035;-78
2021/08/09 03:45:04;;;;;;;5.38;1.67;;;;;;;;;;5095912;28;20499;-78
2021/08/09 03:47:29;;;;;;;5.68;1.70;;;;;;;;;;5094882;28;20032;-76
2021/08/09 03:49:54;;;;;;;6.32;1.67;;;;;;;;;;5094709;28;20122;-76
2021/08/09 03:52:20;;;;;;;3.42;2.00;;;;;;;;;;5094756;28;20067;-77
2021/08/09 03:54:45;;;;;;;11.27;1.70;;;;;;;;;;5075627;28;20032;-77
2021/08/09 03:57:11;;;;;;;3.80;1.75;;;;;;;;;;5074214;28;20490;-78
2021/08/09 03:59:37;;;;;;;4.10;1.58;;;;;;;;;;5074317;28;20081;-77
2021/08/09 04:02:03;;;;;;;6.10;1.75;;;;;;;;;;5057671;28;20028;-76
2021/08/09 04:04:28;;;;;;;2.65;1.60;;;;;;;;;;5057453;28;20082;-76
2021/08/09 04:06:54;;;;;;;5.72;2.20;;;;;;;;;;5056905;28;20033;-77
2021/08/09 04:09:20;;;;;;;7.95;1.98;;;;;;;;;;5074055;28;20028;-78
2021/08/09 04:11:45;;;;;;;4.10;1.90;;;;;;;;;;5057419;28;20474;-76
2021/08/09 04:14:10;;;;;;;6.45;2.00;;;;;;;;;;5073967;28;20040;-78
2021/08/09 04:16:37;;;;;;;3.83;1.75;;;;;;;;;;5057562;28;20036;-77
2021/08/09 04:19:03;;;;;;;4.82;1.90;;;;;;;;;;5075356;28;20075;-77
2021/08/09 04:21:29;;;;;;;8.38;2.63;;;;;;;;;;5057161;28;20386;-76
2021/08/09 04:23:55;;;;;;;4.05;1.50;;;;;;;;;;5057107;28;20560;-76
2021/08/09 04:26:23;;;;;;;4.53;1.98;;;;;;;;;;5073485;28;20478;-78
2021/08/09 04:28:49;;;;;;;3.72;1.70;;;;;;;;;;5073802;28;20033;-78
2021/08/09 04:31:17;;;;;;;3.03;1.63;;;;;;;;;;5057014;28;20059;-77
2021/08/09 04:33:46;;;;;;;3.67;1.90;;;;;;;;;;5056923;28;20045;-77
2021/08/09 04:36:13;;;;;;;4.30;1.70;;;;;;;;;;5056985;28;20039;-78
2021/08/09 04:38:39;;;;;;;3.97;1.83;;;;;;;;;;5073281;28;20028;-77
2021/08/09 04:41:07;;;;;;;5.75;2.03;;;;;;;;;;5073417;28;20028;-78
2021/08/09 04:43:35;;;;;;;5.57;2.13;;;;;;;;;;5057095;28;20090;-77
2021/08/09 04:46:02;;;;;;;2.80;1.50;;;;;;;;;;5056789;28;20115;-76
2021/08/09 04:48:29;;;;;;;4.10;1.73;;;;;;;;;;5073710;28;20046;-76
2021/08/09 04:50:55;;;;;;;8.90;2.10;;;;;;;;;;5056890;28;20123;-76
2021/08/09 04:53:20;;;;;;;5.15;2.15;;;;;;;;;;5057049;28;20041;-77
2021/08/09 04:55:46;;;;;;;4.13;3.00;;;;;;;;;;5073406;28;20048;-77
2021/08/09 04:58:12;;;;;;;4.88;2.33;;;;;;;;;;5056503;28;20412;-76
2021/08/09 05:00:37;;;;;;;6.97;1.75;;;;;;;;;;5073710;28;20059;-77
2021/08/09 05:03:04;;;;;;;5.32;3.13;;;;;;;;;;5073501;28;20091;-77
2021/08/09 05:05:29;;;;;;;3.80;1.70;;;;;;;;;;5056439;28;20533;-77
2021/08/09 05:07:56;;;;;;;3.40;1.98;;;;;;;;;;5056731;28;20055;-77
2021/08/09 05:10:24;;;;;;;8.70;2.03;;;;;;;;;;5056435;28;20021;-77
2021/08/09 05:12:51;;;;;;;1.80;1.70;;;;;;;;;;5056546;28;20042;-77
2021/08/09 05:15:20;;;;;;;4.65;1.90;;;;;;;;;;5073177;28;20082;-77
2021/08/09 05:17:45;;;;;;;7.25;1.95;;;;;;;;;;5073899;28;20040;-77
2021/08/09 05:20:11;;;;;;;5.90;2.00;;;;;;;;;;5072530;28;20082;-77
2021/08/09 05:22:36;;;;;;;7.80;1.80;;;;;;;;;;5072931;28;20035;-78
2021/08/09 05:25:10;;;;;;;2.25;1.75;;;;;;;;;;5055741;28;20105;-77
2021/08/09 05:27:39;;;;;;;4.35;1.80;;;;;;;;;;5056486;28;20041;-77
2021/08/09 05:30:06;;;;;;;3.83;2.13;;;;;;;;;;5056323;28;20024;-78
2021/08/09 05:32:34;;;;;;;4.38;2.10;;;;;;;;;;5072644;28;20040;-77
2021/08/09 05:35:00;;;;;;;4.25;1.63;;;;;;;;;;5056163;28;20064;-77
2021/08/09 05:37:31;;;;;;;5.50;1.85;;;;;;;;;;5055928;28;20090;-77
2021/08/09 05:39:58;;;;;;;5.78;1.98;;;;;;;;;;5072331;28;20063;-77
2021/08/09 05:42:25;;;;;;;7.20;1.92;;;;;;;;;;5056239;28;20030;-77
2021/08/09 05:44:51;;;;;;;4.13;1.80;;;;;;;;;;5055946;28;20086;-77
2021/08/09 05:47:17;;;;;;;6.22;1.90;;;;;;;;;;5073599;28;20036;-77
2021/08/09 05:49:44;;;;;;;5.07;2.58;;;;;;;;;;5055880;28;20120;-78
2021/08/09 05:52:24;;;;;;;4.75;2.30;;;;;;;;;;5055620;28;20123;-77
2021/08/09 05:55:02;;;;;;;2.15;1.58;;;;;;;;;;5072266;28;20106;-77
2021/08/09 05:57:28;;;;;;;3.95;1.95;;;;;;;;;;5072349;28;20123;-77
2021/08/09 05:59:54;;;;;;;6.15;1.67;;;;;;;;;;5073401;28;20055;-77
2021/08/09 06:02:21;;;;;;;5.28;2.60;;;;;;;;;;5072090;28;20039;-77
2021/08/09 06:04:46;;;;;;;4.82;2.33;;;;;;;;;;5074845;28;20036;-79
2021/08/09 06:07:17;;;;;;;4.63;2.10;;;;;;;;;;5065363;28;20160;-78
2021/08/09 06:09:51;;;;;;;5.07;1.80;;;;;;;;;;5064336;28;20028;-79
2021/08/09 06:12:16;;;;;;;3.60;1.70;;;;;;;;;;5082753;28;20094;-79
2021/08/09 06:14:42;;;;;;;4.03;1.73;;;;;;;;;;5081553;28;20066;-79
2021/08/09 06:17:08;;;;;;;7.07;1.98;;;;;;;;;;5060478;28;20036;-79
2021/08/09 06:19:35;;;;;;;3.75;1.98;;;;;;;;;;5080360;28;20055;-79
2021/08/09 06:22:01;;;;;;;5.03;1.90;;;;;;;;;;5095303;28;20063;-78
2021/08/09 06:24:27;;;;;;;7.97;1.90;;;;;;;;;;5089828;28;20477;-79
2021/08/09 06:26:53;;;;;;;5.53;1.85;;;;;;;;;;5095584;28;20029;-80
2021/08/09 06:29:19;;;;;;;4.63;1.83;;;;;;;;;;5094299;28;20032;-79
2021/08/09 06:31:45;;;;;;;4.45;2.05;;;;;;;;;;5093135;28;20032;-81
2021/08/09 06:34:11;;;;;;;3.92;1.80;;;;;;;;;;5094533;28;20123;-79
2021/08/09 06:36:37;;;;;;;4.50;1.80;;;;;;;;;;5076761;28;20063;-76
2021/08/09 06:39:03;;;;;;;4.00;1.98;;;;;;;;;;5089859;28;20029;-78
2021/08/09 06:41:32;;;;;;;4.07;1.70;;;;;;;;;;5091470;28;20055;-77
2021/08/09 06:44:14;;;;;;;9.10;2.20;;;;;;;;;;5098456;28;20067;-77
2021/08/09 06:46:39;;;;;;;4.13;1.92;;;;;;;;;;5092613;28;20378;-76
2021/08/09 06:49:05;;;;;;;8.00;2.05;;;;;;;;;;5076110;28;20132;-77
2021/08/09 06:51:31;;;;;;;7.55;1.95;;;;;;;;;;5075860;28;20064;-76
2021/08/09 06:53:57;;;;;;;9.38;2.17;;;;;;;;;;5080459;28;20123;-77
2021/08/09 06:56:22;;;;;;;3.70;2.00;;;;;;;;;;5118882;28;20063;-79
2021/08/09 06:58:50;;;;;;;3.25;1.75;;;;;;;;;;5120764;28;20085;-77
2021/08/09 07:01:16;;;;;;;7.78;1.92;;;;;;;;;;5104013;28;20495;-78
2021/08/09 07:03:45;;;;;;;2.42;1.52;;;;;;;;;;5097684;28;20176;-76
2021/08/09 07:06:21;;;;;;;8.70;2.00;;;;;;;;;;5097022;28;20492;-77
2021/08/09 07:08:50;;;;;;;5.88;1.83;;;;;;;;;;5111860;28;20481;-77
2021/08/09 07:11:17;;;;;;;7.68;2.00;;;;;;;;;;5097842;28;20043;-76
2021/08/09 07:13:44;;;;;;;3.20;1.60;;;;;;;;;;5096078;28;20032;-77
2021/08/09 07:16:11;;;;;;;6.60;1.42;;;;;;;;;;5095711;28;20032;-77
2021/08/09 07:18:37;;;;;;;4.13;1.65;;;;;;;;;;5095156;28;20032;-77
2021/08/09 07:21:03;;;;;;;4.93;1.48;;;;;;;;;;5112298;28;20403;-77
2021/08/09 07:23:29;;;;;;;5.07;1.40;;;;;;;;;;5092032;28;20027;-76
2021/08/09 07:25:55;;;;;;;3.92;1.23;;;;;;;;;;5071115;28;20029;-77
2021/08/09 07:28:20;;;;;;;14.27;1.67;;;;;;;;;;5054661;28;20028;-77
2021/08/09 07:30:46;;;;;;;10.35;1.60;;;;;;;;;;5054641;28;20028;-77
2021/08/09 07:33:11;;;;;;;2.58;1.20;;;;;;;;;;5056160;28;20084;-77
2021/08/09 07:35:38;;;;;;;4.82;1.60;;;;;;;;;;5055826;28;20095;-77
2021/08/09 07:38:04;;;;;;;5.65;1.30;;;;;;;;;;5072570;28;20040;-77
2021/08/09 07:40:30;;;;;;;2.95;1.33;;;;;;;;;;5073669;28;20486;-77
2021/08/09 07:43:02;;;;;;;3.30;1.38;;;;;;;;;;5074427;28;20389;-77
2021/08/09 07:45:29;;;;;;;3.13;1.20;;;;;;;;;;5058255;28;20176;-76
2021/08/09 07:47:57;;;;;;;3.88;1.33;;;;;;;;;;5074929;28;20028;-76
2021/08/09 07:50:24;;;;;;;2.78;1.23;;;;;;;;;;5077135;28;20393;-77
2021/08/09 07:52:50;;;;;;;3.33;1.38;;;;;;;;;;5079138;28;20032;-77
2021/08/09 07:55:15;;;;;;;4.80;1.55;;;;;;;;;;5094722;28;20517;-78
2021/08/09 07:57:42;;;;;;;8.05;1.75;;;;;;;;;;5095713;28;20086;-77
2021/08/09 08:00:09;;;;;;;5.53;1.38;;;;;;;;;;5095029;28;20114;-77
2021/08/09 08:02:41;;;;;;;2.53;1.20;;;;;;;;;;5096196;28;20031;-77
2021/08/09 08:05:08;;;;;;;6.45;1.50;;;;;;;;;;5095105;28;20024;-76
2021/08/09 08:07:34;;;;;;;3.33;1.30;;;;;;;;;;5094582;28;20101;-77
2021/08/09 08:10:02;;;;;;;2.17;1.05;;;;;;;;;;5094400;28;20056;-76
2021/08/09 08:12:31;;;;;;;3.58;1.30;;;;;;;;;;5094935;28;20043;-76
2021/08/09 08:14:57;;;;;;;4.07;1.20;;;;;;;;;;5095000;28;20396;-77
2021/08/09 08:17:23;;;;;;;3.55;1.25;;;;;;;;;;5094470;28;20036;-77
2021/08/09 08:19:50;;;;;;;6.38;1.60;;;;;;;;;;5077759;28;20024;-77
2021/08/09 08:22:15;;;;;;;2.30;1.27;;;;;;;;;;5077429;28;20028;-76
2021/08/09 08:24:42;;;;;;;8.77;1.38;;;;;;;;;;5089559;28;20499;-76
2021/08/09 08:27:08;;;;;;;9.85;1.42;;;;;;;;;;5116041;28;20481;-78
2021/08/09 08:29:34;;;;;;;3.17;1.30;;;;;;;;;;5099510;28;20035;-77
2021/08/09 08:32:00;;;;;;;2.88;1.33;;;;;;;;;;5115231;28;20046;-77
2021/08/09 08:34:26;;;;;;;4.72;1.52;;;;;;;;;;5115458;28;20048;-77
2021/08/09 08:36:52;;;;;;;3.92;1.40;;;;;;;;;;5097469;28;20115;-76
2021/08/09 08:39:17;;;;;;;2.80;1.30;;;;;;;;;;5114336;28;20039;-76
2021/08/09 08:41:44;;;;;;;3.97;1.60;;;;;;;;;;5097391;28;20019;-77
2021/08/09 08:44:15;;;;;;;7.05;1.52;;;;;;;;;;5116272;28;20122;-78
2021/08/09 08:46:42;;;;;;;3.88;1.25;;;;;;;;;;5099541;28;20411;-78
2021/08/09 08:49:13;;;;;;;4.10;1.40;;;;;;;;;;5116621;28;20032;-79
2021/08/09 08:51:41;;;;;;;3.72;1.60;;;;;;;;;;5115229;28;20028;-77
2021/08/09 08:54:07;;;;;;;3.78;1.50;;;;;;;;;;5109462;28;20031;-77
2021/08/09 08:56:36;;;;;;;4.75;1.60;;;;;;;;;;5077832;28;20035;-78
2021/08/09 08:59:07;;;;;;;10.40;1.60;;;;;;;;;;5078532;28;20040;-78
2021/08/09 09:01:52;;;;;;;4.82;1.08;;;;;;;;;;5078186;28;20161;-80
2021/08/09 09:04:29;;;;;;;3.30;1.13;;;;;;;;;;5097268;28;20109;-78
2021/08/09 09:07:04;;;;;;;3.22;1.50;;;;;;;;;;5095669;28;20221;-78
2021/08/09 09:09:37;;;;;;;;;;;;;;;;;;5078981;28;20043;-79
2021/08/09 09:12:17;;;;;;;4.93;1.38;;;;;;;;;;5095683;28;19915;-79
2021/08/09 09:14:43;;;;;;;2.45;1.13;;;;;;;;;;5094737;28;20093;-77
2021/08/09 09:17:08;;;;;;;4.30;1.42;;;;;;;;;;5094935;28;20035;-78
2021/08/09 09:19:43;;;;;;;2.92;1.40;;;;;;;;;;5095878;28;20052;-77
2021/08/09 09:22:19;;;;;;;4.18;1.42;;;;;;;;;;5095101;28;20086;-77
2021/08/09 09:24:53;;;;;;;3.15;1.30;;;;;;;;;;5092292;28;20055;-79
2021/08/09 09:27:33;;;;;;;5.07;1.27;;;;;;;;;;5074988;28;20028;-78
2021/08/09 09:30:20;;;;;;;3.95;1.40;;;;;;;;;;5059118;28;20056;-78
2021/08/09 09:32:59;;;;;;;3.67;1.33;;;;;;;;;;5058662;28;20041;-79
2021/08/09 09:35:25;;;;;;;3.90;1.35;;;;;;;;;;5058533;28;20064;-78
2021/08/09 09:37:51;;;;;;;2.55;1.50;;;;;;;;;;5058320;28;20089;-78
2021/08/09 09:40:19;;;;;;;10.30;1.98;;;;;;;;;;5076297;28;20037;-78
2021/08/09 09:42:45;;;;;;;4.65;1.65;;;;;;;;;;5058983;28;20036;-79
2021/08/09 09:45:22;;;;;;;14.30;1.85;;;;;;;;;;5057987;28;20037;-78
2021/08/09 09:48:04;;;;;;;4.30;1.60;;;;;;;;;;5075872;28;20037;-79
2021/08/09 09:50:30;;;;;;;14.73;3.17;;;;;;;;;;5075581;28;20390;-78
2021/08/09 09:52:55;;;;;;;6.03;2.47;;;;;;;;;;5077012;28;20033;-79
2021/08/09 09:55:21;;;;;;;5.80;1.70;;;;;;;;;;5076640;28;20764;-79
2021/08/09 09:57:47;;;;;;;4.85;1.70;;;;;;;;;;5075735;28;20040;-79
2021/08/09 10:00:14;;;;;;;4.60;1.27;;;;;;;;;;5060316;28;20032;-79
2021/08/09 10:02:42;;;;;;;3.63;1.63;;;;;;;;;;5077796;28;20032;-78
2021/08/09 10:05:08;;;;;;;3.03;1.25;;;;;;;;;;5058423;28;20044;-80
2021/08/09 10:07:36;;;;;;;4.85;1.83;;;;;;;;;;5060185;28;20106;-78
2021/08/09 10:10:03;;;;;;;7.35;1.70;;;;;;;;;;5078225;28;20028;-78
2021/08/09 10:12:31;;;;;;;3.25;1.40;;;;;;;;;;5060017;28;20036;-78
2021/08/09 10:15:00;;;;;;;4.32;1.55;;;;;;;;;;5077117;28;20064;-78
2021/08/09 10:17:28;;;;;;;6.50;1.58;;;;;;;;;;5061071;28;20041;-78
2021/08/09 10:19:57;;;;;;;4.78;1.30;;;;;;;;;;5060068;28;20513;-78
2021/08/09 10:22:23;;;;;;;5.60;1.23;;;;;;;;;;5060694;28;20059;-79
2021/08/09 10:24:51;;;;;;;3.72;1.33;;;;;;;;;;5098255;28;20050;-79
2021/08/09 10:27:37;;;;;;;3.00;1.17;;;;;;;;;;5098755;28;20085;-79
2021/08/09 10:30:10;;;;;;;5.65;1.30;;;;;;;;;;5099430;28;20043;-79
2021/08/09 10:33:07;;;;;;;7.45;1.75;;;;;;;;;;5083747;28;20099;-79
2021/08/09 10:35:34;;;;;;;4.95;1.80;;;;;;;;;;5103562;28;20048;-79
2021/08/09 10:38:20;;;;;;;5.07;1.55;;;;;;;;;;5088255;28;20024;-79
2021/08/09 10:40:48;;;;;;;4.53;1.48;;;;;;;;;;5101157;28;20091;-80
2021/08/09 10:43:14;;;;;;;2.95;1.50;;;;;;;;;;5101773;28;20393;-79
2021/08/09 10:45:48;;;;;;;2.67;1.33;;;;;;;;;;5084420;28;20109;-79
2021/08/09 10:48:34;;;;;;;5.35;1.50;;;;;;;;;;5086641;28;20044;-79
2021/08/09 10:50:59;;;;;;;;;;;;;;;;;;5086177;28;20468;-80
2021/08/09 10:53:24;;;;;;;2.88;1.15;;;;;;;;;;5114479;28;19912;-80
2021/08/09 10:55:51;;;;;;;2.33;1.10;;;;;;;;;;5106298;28;20044;-80
2021/08/09 10:58:41;;;;;;;7.90;1.40;;;;;;;;;;5065155;28;20050;-79
2021/08/09 11:01:17;;;;;;;2.78;1.38;;;;;;;;;;5065293;28;20033;-78
2021/08/09 11:04:01;;;;;;;;;;;;;;;;;;5076874;28;20098;-78
2021/08/09 11:06:38;;;;;;;6.70;1.90;;;;;;;;;;5063071;28;19912;-77
2021/08/09 11:09:32;;;;;;;3.45;1.30;;;;;;;;;;5081719;28;20474;-79
2021/08/09 11:12:08;;;;;;;3.85;1.40;;;;;;;;;;5078751;28;20040;-80
2021/08/09 11:15:10;;;;;;;3.42;1.25;;;;;;;;;;5074863;28;20047;-77
2021/08/09 11:17:38;;;;;;;3.67;1.27;;;;;;;;;;5080625;28;20036;-78
2021/08/09 11:20:11;;;;;;;2.42;1.17;;;;;;;;;;5077856;28;20075;-77
2021/08/09 11:22:37;;;;;;;4.63;1.30;;;;;;;;;;5083473;28;20035;-79
2021/08/09 11:25:22;;;;;;;3.33;1.25;;;;;;;;;;5085469;28;20033;-76
2021/08/09 11:27:57;;;;;;;6.70;1.25;;;;;;;;;;5120022;28;20040;-76
2021/08/09 11:30:37;;;;;;;2.65;1.25;;;;;;;;;;5115985;28;20031;-76
2021/08/09 11:33:04;;;;;;;2.58;0.98;;;;;;;;;;5096843;28;20040;-76
2021/08/09 11:35:29;;;;;;;5.25;1.50;;;;;;;;;;5113987;28;20078;-76
2021/08/09 11:38:00;;;;;;;3.70;1.20;;;;;;;;;;5115476;28;20059;-76
2021/08/09 11:40:39;;;;;;;5.20;1.88;;;;;;;;;;5114574;28;20082;-76
2021/08/09 11:43:07;;;;;;;2.65;1.23;;;;;;;;;;5115126;28;20031;-76
2021/08/09 11:45:33;;;;;;;2.25;0.95;;;;;;;;;;5100389;28;20104;-78
2021/08/09 11:47:58;;;;;;;3.63;1.05;;;;;;;;;;5109531;28;20020;-80
2021/08/09 11:50:24;;;;;;;8.80;1.98;;;;;;;;;;5129480;28;20039;-80
2021/08/09 11:52:51;;;;;;;4.13;1.60;;;;;;;;;;5110574;28;20431;-79
2021/08/09 11:55:22;;;;;;;10.07;1.77;;;;;;;;;;5084190;28;20142;-79
2021/08/09 11:57:49;;;;;;;7.88;1.77;;;;;;;;;;5087350;28;20058;-79
2021/08/09 12:00:15;;;;;;;5.95;1.70;;;;;;;;;;5071053;28;20104;-78
2021/08/09 12:03:20;;;;;;;3.58;1.25;;;;;;;;;;5089664;28;20051;-80
2021/08/09 12:05:46;;;;;;;6.40;1.17;;;;;;;;;;5091259;28;20047;-80
2021/08/09 12:08:12;;;;;;;4.28;1.55;;;;;;;;;;5073458;28;20390;-83
2021/08/09 12:10:39;;;;;;;4.80;1.25;;;;;;;;;;5072025;28;20032;-80
2021/08/09 12:13:22;;;;;;;4.28;1.23;;;;;;;;;;5073614;28;20029;-79
2021/08/09 12:16:07;;;;;;;4.65;1.40;;;;;;;;;;5077103;28;20067;-79
2021/08/09 12:18:33;;;;;;;3.40;1.13;;;;;;;;;;5077086;28;20136;-80
2021/08/09 12:21:17;;;;;;;4.50;1.65;;;;;;;;;;5073325;28;20041;-79
2021/08/09 12:23:51;;;;;;;6.93;3.55;;;;;;;;;;5084154;28;20370;-79
2021/08/09 12:26:24;;;;;;;2.55;1.30;;;;;;;;;;5085964;28;20036;-79
2021/08/09 12:28:52;;;;;;;1.67;1.02;;;;;;;;;;5086460;28;20039;-78
2021/08/09 12:31:34;;;;;;;5.72;1.20;;;;;;;;;;5104261;28;20035;-78
2021/08/09 12:34:05;;;;;;;3.67;1.65;;;;;;;;;;5088169;28;20063;-79
2021/08/09 12:36:32;;;;;;;4.28;1.48;;;;;;;;;;5106277;28;20046;-79
2021/08/09 12:38:58;;;;;;;6.43;1.52;;;;;;;;;;5089844;28;20040;-78
2021/08/09 12:41:28;;;;;;;6.55;1.30;;;;;;;;;;5086104;28;20035;-79
2021/08/09 12:43:55;;;;;;;5.25;1.80;;;;;;;;;;5075482;28;20043;-78
2021/08/09 12:46:21;;;;;;;3.78;1.70;;;;;;;;;;5110205;28;20050;-79
2021/08/09 12:48:50;;;;;;;4.65;1.90;;;;;;;;;;5126434;28;20028;-79
2021/08/09 12:51:16;;;;;;;5.97;1.60;;;;;;;;;;5126685;28;20031;-78
2021/08/09 12:53:42;;;;;;;5.95;1.65;;;;;;;;;;5108918;28;20046;-78
2021/08/09 12:56:08;;;;;;;6.50;1.38;;;;;;;;;;5094571;28;20060;-78
2021/08/09 12:58:35;;;;;;;5.30;1.73;;;;;;;;;;5106583;28;20044;-78
2021/08/09 13:01:00;;;;;;;5.18;1.45;;;;;;;;;;5086292;28;20055;-78
2021/08/09 13:03:26;;;;;;;3.25;1.30;;;;;;;;;;5103200;28;20097;-78
2021/08/09 13:05:51;;;;;;;4.70;1.65;;;;;;;;;;5088102;28;20039;-78
2021/08/09 13:08:17;;;;;;;6.75;1.60;;;;;;;;;;5087435;28;20079;-78
2021/08/09 13:10:42;;;;;;;8.57;1.40;;;;;;;;;;5104172;28;20039;-78
2021/08/09 13:13:07;;;;;;;8.63;1.65;;;;;;;;;;5102925;28;20393;-78
2021/08/09 13:15:33;;;;;;;5.85;1.30;;;;;;;;;;5102550;28;20059;-77
2021/08/09 13:17:58;;;;;;;6.50;1.35;;;;;;;;;;5083414;28;20034;-78
2021/08/09 13:20:24;;;;;;;3.25;1.63;;;;;;;;;;5102217;28;20035;-78
2021/08/09 13:22:50;;;;;;;6.03;1.20;;;;;;;;;;5102124;28;20028;-78
2021/08/09 13:25:15;;;;;;;2.88;1.50;;;;;;;;;;5101255;28;20032;-78
2021/08/09 13:27:41;;;;;;;4.78;1.75;;;;;;;;;;5101636;28;20032;-78
2021/08/09 13:30:07;;;;;;;5.10;1.38;;;;;;;;;;5102905;28;20031;-79
2021/08/09 13:32:33;;;;;;;5.60;1.60;;;;;;;;;;5105709;28;20044;-80
2021/08/09 13:34:59;;;;;;;5.25;1.45;;;;;;;;;;5107149;28;20039;-79
2021/08/09 13:37:25;;;;;;;5.47;2.60;;;;;;;;;;5106021;28;20489;-79
2021/08/09 13:39:51;;;;;;;2.53;1.40;;;;;;;;;;5106078;28;20074;-80
2021/08/09 13:42:17;;;;;;;4.55;1.50;;;;;;;;;;5089968;28;20028;-79
2021/08/09 13:44:42;;;;;;;6.90;1.30;;;;;;;;;;5107302;28;20038;-80
2021/08/09 13:47:08;;;;;;;7.22;2.08;;;;;;;;;;5088455;28;20046;-77
2021/08/09 13:49:33;;;;;;;2.90;1.25;;;;;;;;;;5105241;28;20445;-79
2021/08/09 13:51:58;;;;;;;4.82;1.10;;;;;;;;;;5106435;28;20043;-80
2021/08/09 13:54:24;;;;;;;1.80;1.33;;;;;;;;;;5076125;28;20033;-80
2021/08/09 13:56:50;;;;;;;2.70;1.38;;;;;;;;;;5085032;28;20036;-79
2021/08/09 13:59:15;;;;;;;6.82;1.50;;;;;;;;;;5068819;28;20555;-79
2021/08/09 14:01:41;;;;;;;4.28;1.50;;;;;;;;;;5084531;28;20064;-79
2021/08/09 14:04:06;;;;;;;2.08;1.08;;;;;;;;;;5065933;28;20032;-78
2021/08/09 14:06:32;;;;;;;4.20;1.40;;;;;;;;;;5064385;28;20032;-78
2021/08/09 14:08:57;;;;;;;3.00;1.40;;;;;;;;;;5082660;28;20061;-79
2021/08/09 14:11:22;;;;;;;4.38;1.50;;;;;;;;;;5065807;28;20033;-78
2021/08/09 14:13:48;;;;;;;3.45;1.40;;;;;;;;;;5083478;28;20039;-79
2021/08/09 14:16:13;;;;;;;5.38;1.35;;;;;;;;;;5082911;28;20036;-78
2021/08/09 14:18:39;;;;;;;17.88;3.30;;;;;;;;;;5064819;28;20122;-79
2021/08/09 14:21:04;;;;;;;5.07;1.60;;;;;;;;;;5079522;28;20028;-81
2021/08/09 14:23:30;;;;;;;6.00;2.53;;;;;;;;;;5080889;28;20036;-79
2021/08/09 14:25:56;;;;;;;6.82;2.15;;;;;;;;;;5064231;28;20029;-78
2021/08/09 14:28:22;;;;;;;3.78;1.70;;;;;;;;;;5086225;28;20039;-79
2021/08/09 14:30:48;;;;;;;3.45;1.38;;;;;;;;;;5059905;28;20032;-78
2021/08/09 14:33:16;;;;;;;4.10;1.40;;;;;;;;;;5056647;28;20490;-78
2021/08/09 14:35:44;;;;;;;6.32;1.50;;;;;;;;;;5073148;28;20058;-77
2021/08/09 14:38:16;;;;;;;6.47;1.40;;;;;;;;;;5093535;28;20048;-78
2021/08/09 14:40:44;;;;;;;10.70;2.55;;;;;;;;;;5077795;28;20085;-77
2021/08/09 14:43:10;;;;;;;4.43;1.65;;;;;;;;;;5077079;28;20030;-79
2021/08/09 14:45:37;;;;;;;2.88;1.20;;;;;;;;;;5092757;28;20114;-77
2021/08/09 14:48:03;;;;;;;2.65;1.38;;;;;;;;;;5076911;28;20032;-77
2021/08/09 14:50:29;;;;;;;4.82;1.70;;;;;;;;;;5094639;28;20032;-78
2021/08/09 14:52:55;;;;;;;3.97;1.48;;;;;;;;;;5098490;28;20032;-77